This is the latest recevied weather packets stored in our database for station/object KB2SKP. If no packets are shown the sender has not sent any weather packets the latest 10 day(s).
| Time | Temp. | Humidity | Pressure | Rain* | Wind** | Luminosity | Snow |
|---|---|---|---|---|---|---|---|
| 1777619562 | 8.89° C | 67% | 1010.5 hPa | 0 mm | - | 0 W/m² | - |
| 1777619257 | 8.89° C | 67% | 1010.3 hPa | 0 mm | - | 0 W/m² | - |
| 1777618951 | 8.89° C | 67% | 1010.3 hPa | 0 mm | - | 0 W/m² | - |
| 1777618647 | 8.89° C | 67% | 1010.5 hPa | 0 mm | - | 0 W/m² | - |
| 1777618342 | 8.89° C | 67% | 1010.4 hPa | 0 mm | - | 0 W/m² | - |
| 1777618040 | 8.89° C | 66% | 1010.3 hPa | 0 mm | - | 0 W/m² | - |
| 1777617736 | 8.89° C | 66% | 1010.2 hPa | 0 mm | - | 0 W/m² | - |
| 1777617435 | 8.89° C | 66% | 1010.3 hPa | 0 mm | - | 0 W/m² | - |
| 1777617134 | 8.89° C | 67% | 1010.3 hPa | 0 mm | - | 0 W/m² | - |
| 1777616829 | 8.89° C | 68% | 1010.3 hPa | 0 mm | - | 0 W/m² | - |
| 1777616524 | 8.89° C | 68% | 1010.4 hPa | 0 mm | - | 0 W/m² | - |
| 1777616220 | 8.33° C | 70% | 1010.4 hPa | 0 mm | - | 0 W/m² | - |
| 1777615917 | 8.33° C | 72% | 1010.5 hPa | 0 mm | - | 0 W/m² | - |
| 1777615614 | 7.78° C | 72% | 1010.5 hPa | 0 mm | - | 0 W/m² | - |
| 1777615311 | 7.78° C | 75% | 1010.6 hPa | 0 mm | - | 0 W/m² | - |
| 1777615009 | 7.78° C | 75% | 1010.5 hPa | 0 mm | - | 0 W/m² | - |
| 1777614706 | 8.33° C | 73% | 1010.5 hPa | 0 mm | - | 0 W/m² | - |
| 1777614401 | 8.89° C | 71% | 1010.7 hPa | 0 mm | - | 0 W/m² | - |
| 1777614098 | 8.89° C | 69% | 1010.6 hPa | 0 mm | - | 0 W/m² | - |
| 1777613792 | 8.89° C | 69% | 1010.5 hPa | 0 mm | - | 0 W/m² | - |
| 1777613491 | 9.44° C | 67% | 1010.4 hPa | 0 mm | - | 0 W/m² | - |
| 1777613186 | 9.44° C | 66% | 1010.3 hPa | 0 mm | - | 0 W/m² | - |
| 1777612883 | 9.44° C | 66% | 1010.2 hPa | 0 mm | - | 0 W/m² | - |
| 1777612579 | 10° C | 66% | 1010.1 hPa | 0 mm | - | 0 W/m² | - |
| 1777612275 | 10° C | 65% | 1010.2 hPa | 0 mm | - | 0 W/m² | - |
* Rain latest hour (hover to see other rain measurements)
** Current wind speed in m/s (hover to see current wind gust speed)